Time;durP1;ratioP1;P1;durP2;ratioP2;P2;SDS_P1;SDS_P2;PMS_P1;PMS_P2;Temp;Humidity;BMP_temperature;BMP_pressure;BME280_temperature;BME280_humidity;BME280_pressure;Samples;Min_cycle;Max_cycle;Signal;HPM_P1;HPM_P2
2021/06/13 00:01:11;;;;;;;9.50;4.80;;;14.80;69.10;;;;;;5068898;28;20020;-72
2021/06/13 00:03:37;;;;;;;7.55;5.07;;;14.80;69.20;;;;;;5068280;28;20473;-72
2021/06/13 00:06:04;;;;;;;10.85;5.60;;;14.80;69.30;;;;;;5052807;28;20033;-72
2021/06/13 00:08:30;;;;;;;12.57;5.15;;;14.80;69.20;;;;;;5050865;28;20043;-73
2021/06/13 00:10:57;;;;;;;11.70;5.53;;;14.80;69.40;;;;;;5066202;28;20461;-73
2021/06/13 00:13:23;;;;;;;9.27;5.20;;;14.80;69.40;;;;;;5067847;28;20438;-73
2021/06/13 00:15:49;;;;;;;10.52;6.20;;;14.80;69.40;;;;;;5068298;28;20055;-72
2021/06/13 00:18:15;;;;;;;10.90;5.70;;;14.80;69.60;;;;;;5072330;28;20449;-72
2021/06/13 00:20:41;;;;;;;12.68;6.25;;;14.80;69.50;;;;;;5051659;28;20044;-76
2021/06/13 00:23:06;;;;;;;10.52;6.75;;;14.70;69.60;;;;;;5051063;28;20037;-73
2021/06/13 00:25:32;;;;;;;12.75;6.68;;;14.60;69.70;;;;;;5060654;28;20059;-73
2021/06/13 00:27:58;;;;;;;13.40;5.78;;;14.60;69.80;;;;;;5068875;28;20059;-73
2021/06/13 00:30:24;;;;;;;10.70;5.80;;;14.60;69.90;;;;;;5071203;28;20487;-73
2021/06/13 00:32:50;;;;;;;11.85;6.20;;;14.50;70.10;;;;;;5052048;28;20511;-72
2021/06/13 00:35:18;;;;;;;9.90;5.30;;;14.50;70.20;;;;;;5063165;28;20115;-73
2021/06/13 00:37:43;;;;;;;11.55;6.28;;;14.50;70.40;;;;;;5067392;28;20032;-77
2021/06/13 00:40:10;;;;;;;12.00;6.55;;;14.50;70.40;;;;;;5069667;28;20032;-73
2021/06/13 00:42:37;;;;;;;12.70;5.88;;;14.40;70.40;;;;;;5067497;28;20060;-75
2021/06/13 00:45:04;;;;;;;12.13;6.47;;;14.40;70.50;;;;;;5059287;28;20403;-73
2021/06/13 00:47:30;;;;;;;13.25;6.32;;;14.40;70.60;;;;;;5069758;28;20056;-74
2021/06/13 00:49:55;;;;;;;8.95;5.97;;;14.40;70.80;;;;;;5069350;28;20465;-73
2021/06/13 00:52:23;;;;;;;12.65;6.53;;;14.40;70.90;;;;;;5065432;28;20098;-72
2021/06/13 00:54:49;;;;;;;14.18;6.35;;;14.30;71.10;;;;;;5066035;28;20027;-73
2021/06/13 00:57:14;;;;;;;10.55;5.95;;;14.40;71.00;;;;;;5070264;28;20389;-72
2021/06/13 00:59:40;;;;;;;12.43;6.57;;;14.40;71.00;;;;;;5062487;28;20061;-73
2021/06/13 01:02:06;;;;;;;15.80;7.40;;;14.40;71.10;;;;;;5049631;28;20087;-74
2021/06/13 01:04:31;;;;;;;15.10;7.05;;;14.30;71.00;;;;;;5032795;28;20033;-72
2021/06/13 01:07:22;;;;;;;15.05;6.95;;;14.30;71.00;;;;;;5047335;28;20431;-73
2021/06/13 01:09:57;;;;;;;15.50;7.13;;;14.30;71.20;;;;;;5051316;28;20457;-75
2021/06/13 01:12:27;;;;;;;12.40;6.30;;;14.20;71.20;;;;;;5052954;28;20021;-72
2021/06/13 01:15:09;;;;;;;12.93;6.65;;;14.20;71.60;;;;;;5058289;28;20090;-74
2021/06/13 01:18:00;;;;;;;12.82;6.10;;;14.20;71.70;;;;;;5051717;28;20017;-73
2021/06/13 01:20:37;;;;;;;15.63;7.30;;;14.10;71.70;;;;;;5063203;28;20021;-72
2021/06/13 01:23:10;;;;;;;12.95;6.93;;;14.20;71.70;;;;;;5055532;28;20025;-73
2021/06/13 01:25:54;;;;;;;13.75;6.97;;;14.20;71.70;;;;;;5063372;28;20039;-73
2021/06/13 01:28:53;;;;;;;13.35;7.18;;;14.10;71.90;;;;;;5071022;28;20465;-72
2021/06/13 01:31:23;;;;;;;13.85;7.20;;;14.10;72.20;;;;;;5071612;28;20029;-72
2021/06/13 01:33:49;;;;;;;15.52;7.43;;;14.10;72.10;;;;;;5069475;28;20385;-76
2021/06/13 01:36:16;;;;;;;14.70;7.07;;;14.00;72.20;;;;;;5051608;28;20033;-73
2021/06/13 01:38:45;;;;;;;16.02;7.25;;;14.00;72.40;;;;;;5069017;28;20385;-72
2021/06/13 01:41:14;;;;;;;12.93;7.57;;;14.00;72.50;;;;;;5060073;28;20477;-72
2021/06/13 01:43:41;;;;;;;12.70;7.47;;;13.90;72.60;;;;;;5050868;28;20021;-72
2021/06/13 01:46:09;;;;;;;15.45;7.88;;;13.90;72.70;;;;;;5069367;28;20044;-72
2021/06/13 01:48:37;;;;;;;14.85;8.30;;;13.90;72.90;;;;;;5088729;28;20028;-73
2021/06/13 01:51:04;;;;;;;13.60;8.50;;;13.80;73.00;;;;;;5070496;28;20017;-73
2021/06/13 01:53:41;;;;;;;18.98;8.70;;;13.80;73.10;;;;;;5056710;28;20503;-73
2021/06/13 01:56:08;;;;;;;17.00;8.57;;;13.80;73.20;;;;;;5053979;28;20037;-74
2021/06/13 01:58:35;;;;;;;17.45;8.50;;;13.80;73.20;;;;;;5064846;28;20473;-73
2021/06/13 02:01:03;;;;;;;14.02;7.85;;;13.80;73.20;;;;;;5052763;28;20295;-73
2021/06/13 02:03:29;;;;;;;16.77;7.80;;;13.80;73.30;;;;;;5074830;28;20048;-73
2021/06/13 02:05:56;;;;;;;18.45;8.27;;;13.70;73.40;;;;;;5070442;28;20032;-76
2021/06/13 02:08:22;;;;;;;12.93;8.38;;;13.70;73.40;;;;;;5064114;28;20048;-73
2021/06/13 02:10:52;;;;;;;17.45;8.60;;;13.70;74.00;;;;;;5053381;28;20055;-72
2021/06/13 02:13:18;;;;;;;14.43;8.43;;;13.70;73.60;;;;;;5058913;28;20041;-73
2021/06/13 02:15:44;;;;;;;14.93;9.50;;;13.60;73.70;;;;;;5060011;28;20032;-74
2021/06/13 02:18:12;;;;;;;14.15;9.23;;;13.60;73.80;;;;;;5073592;28;20039;-71
2021/06/13 02:20:39;;;;;;;19.33;9.20;;;13.60;73.80;;;;;;5072888;28;20100;-72
2021/06/13 02:23:06;;;;;;;16.95;8.77;;;13.50;74.10;;;;;;5061268;28;20036;-73
2021/06/13 02:25:32;;;;;;;14.45;8.23;;;13.50;74.20;;;;;;5071138;28;20473;-72
2021/06/13 02:28:01;;;;;;;18.65;9.00;;;13.50;74.40;;;;;;5066971;28;20033;-76
2021/06/13 02:30:30;;;;;;;18.02;9.18;;;13.50;74.40;;;;;;5072863;28;20025;-73
2021/06/13 02:32:58;;;;;;;15.68;9.27;;;13.40;74.50;;;;;;5064398;28;20029;-76
2021/06/13 02:35:24;;;;;;;17.60;9.52;;;13.40;74.70;;;;;;5066485;28;20101;-73
2021/06/13 02:37:51;;;;;;;15.73;8.90;;;13.40;74.70;;;;;;5073236;28;20030;-73
2021/06/13 02:40:18;;;;;;;19.95;9.68;;;13.40;74.70;;;;;;5064078;28;20036;-74
2021/06/13 02:42:44;;;;;;;19.13;10.10;;;13.40;74.80;;;;;;5071943;28;20485;-72
2021/06/13 02:45:16;;;;;;;20.80;8.98;;;13.40;74.80;;;;;;5063044;28;20041;-72
2021/06/13 02:47:43;;;;;;;14.82;9.50;;;13.40;74.90;;;;;;5073891;28;20100;-72
2021/06/13 02:50:10;;;;;;;18.20;9.52;;;13.40;75.00;;;;;;5070580;28;20032;-72
2021/06/13 02:52:46;;;;;;;16.48;9.68;;;13.30;75.00;;;;;;5073593;28;20040;-73
2021/06/13 02:55:20;;;;;;;19.85;9.55;;;13.30;75.20;;;;;;5066478;28;20032;-72
2021/06/13 02:58:01;;;;;;;18.10;9.57;;;13.20;75.40;;;;;;5070466;28;20028;-73
2021/06/13 03:00:28;;;;;;;17.93;9.70;;;13.20;75.70;;;;;;5069800;28;20033;-73
2021/06/13 03:02:57;;;;;;;17.87;10.20;;;13.30;75.50;;;;;;5071401;28;20025;-72
2021/06/13 03:05:27;;;;;;;16.35;9.65;;;13.30;75.40;;;;;;5070874;28;20028;-73
2021/06/13 03:07:53;;;;;;;23.70;11.47;;;13.20;75.30;;;;;;5073195;28;20350;-73
2021/06/13 03:10:20;;;;;;;20.00;10.23;;;13.20;75.50;;;;;;5068200;28;20051;-74
2021/06/13 03:12:47;;;;;;;20.77;10.57;;;13.20;75.80;;;;;;5054137;28;20053;-73
2021/06/13 03:15:14;;;;;;;19.27;10.17;;;13.20;75.90;;;;;;5086529;28;20032;-73
2021/06/13 03:17:41;;;;;;;20.13;10.40;;;13.20;75.80;;;;;;5068615;28;20037;-73
2021/06/13 03:20:10;;;;;;;20.53;10.33;;;13.20;76.00;;;;;;5062349;28;20497;-74
2021/06/13 03:22:37;;;;;;;20.53;10.20;;;13.10;75.90;;;;;;5068397;28;20074;-72
2021/06/13 03:25:05;;;;;;;20.17;10.70;;;13.20;76.10;;;;;;5065622;28;20060;-76
2021/06/13 03:27:31;;;;;;;17.93;10.53;;;13.20;76.10;;;;;;5070990;28;20020;-73
2021/06/13 03:29:58;;;;;;;25.17;11.20;;;13.20;76.10;;;;;;5059303;28;20025;-72
2021/06/13 03:32:26;;;;;;;18.07;9.67;;;13.10;76.10;;;;;;5084820;28;20090;-73
2021/06/13 03:34:53;;;;;;;18.70;10.83;;;13.10;76.30;;;;;;5056946;28;20044;-73
2021/06/13 03:37:19;;;;;;;18.63;10.13;;;13.10;76.10;;;;;;5052221;28;20099;-73
2021/06/13 03:39:46;;;;;;;18.83;10.87;;;13.10;76.20;;;;;;5067047;28;20029;-72
2021/06/13 03:42:15;;;;;;;16.80;10.20;;;13.20;76.10;;;;;;5082435;28;20033;-73
2021/06/13 03:44:42;;;;;;;20.73;10.85;;;13.30;75.90;;;;;;5067476;28;20076;-72
2021/06/13 03:47:08;;;;;;;19.63;10.55;;;13.30;75.70;;;;;;5070521;28;20115;-75
2021/06/13 03:49:35;;;;;;;22.95;11.55;;;13.30;75.70;;;;;;5069667;28;20028;-72
2021/06/13 03:52:01;;;;;;;18.67;10.47;;;13.30;75.60;;;;;;5069509;28;20475;-72
2021/06/13 03:54:26;;;;;;;21.10;10.95;;;13.30;75.60;;;;;;5080339;28;20037;-72
2021/06/13 03:57:01;;;;;;;23.05;12.00;;;13.40;75.50;;;;;;5053089;28;20037;-72
2021/06/13 03:59:28;;;;;;;21.42;11.32;;;13.80;74.80;;;;;;5059922;28;20068;-72
2021/06/13 04:01:56;;;;;;;20.33;12.90;;;14.20;73.90;;;;;;5059288;28;20501;-73
2021/06/13 04:04:23;;;;;;;24.27;12.77;;;14.20;73.00;;;;;;5058548;28;20067;-73
2021/06/13 04:06:49;;;;;;;23.13;11.47;;;14.10;73.10;;;;;;5070131;28;20036;-72
2021/06/13 04:09:20;;;;;;;18.37;10.53;;;14.00;73.50;;;;;;5063490;28;20440;-72
2021/06/13 04:11:47;;;;;;;21.00;11.18;;;14.30;73.40;;;;;;5051057;28;20053;-72
2021/06/13 04:14:15;;;;;;;19.48;10.95;;;14.50;72.90;;;;;;5052002;28;20037;-73
2021/06/13 04:16:45;;;;;;;18.10;10.00;;;14.90;72.10;;;;;;5050379;28;20083;-73
2021/06/13 04:19:11;;;;;;;21.35;10.88;;;15.10;71.40;;;;;;5054644;28;20035;-76
2021/06/13 04:21:39;;;;;;;19.50;10.88;;;16.00;70.00;;;;;;5065717;28;20123;-72
2021/06/13 04:24:10;;;;;;;19.15;10.63;;;17.10;67.60;;;;;;5063584;28;20051;-72
2021/06/13 04:26:38;;;;;;;20.35;9.73;;;18.00;64.70;;;;;;5069968;28;20033;-71
2021/06/13 04:29:04;;;;;;;13.88;9.25;;;18.90;62.50;;;;;;5070182;28;20025;-71
2021/06/13 04:31:29;;;;;;;15.27;9.57;;;19.60;60.70;;;;;;5062196;28;20036;-72
2021/06/13 04:33:55;;;;;;;15.98;9.82;;;20.20;59.10;;;;;;5051328;28;20024;-71
2021/06/13 04:36:22;;;;;;;15.40;8.80;;;20.70;57.10;;;;;;5053956;28;20041;-72
2021/06/13 04:38:48;;;;;;;19.67;9.75;;;21.30;55.70;;;;;;5049874;28;20377;-72
2021/06/13 04:41:14;;;;;;;16.65;9.60;;;21.80;54.10;;;;;;5071954;28;20059;-74
2021/06/13 04:43:41;;;;;;;16.67;9.13;;;22.10;52.60;;;;;;5052706;28;20140;-71
2021/06/13 04:46:10;;;;;;;15.10;8.70;;;22.40;51.60;;;;;;5063250;28;20029;-71
2021/06/13 04:48:38;;;;;;;16.35;9.13;;;22.80;50.60;;;;;;5068890;28;20029;-71
2021/06/13 04:51:06;;;;;;;15.18;8.35;;;23.00;50.10;;;;;;5070391;28;20475;-72
2021/06/13 04:53:47;;;;;;;16.52;8.40;;;23.30;49.30;;;;;;5067775;28;20130;-72
2021/06/13 04:56:27;;;;;;;13.70;8.75;;;23.80;47.80;;;;;;5050208;28;20036;-71
2021/06/13 04:58:53;;;;;;;15.60;8.32;;;24.00;47.20;;;;;;5053796;28;20123;-71
2021/06/13 05:01:19;;;;;;;12.00;7.55;;;24.50;46.50;;;;;;5068871;28;20139;-72
2021/06/13 05:03:45;;;;;;;18.27;7.80;;;24.80;45.80;;;;;;5068947;28;20028;-72
2021/06/13 05:06:11;;;;;;;14.25;7.10;;;25.00;45.20;;;;;;5069059;28;20422;-72
2021/06/13 05:08:39;;;;;;;13.20;7.53;;;25.30;44.60;;;;;;5068386;28;20033;-72
2021/06/13 05:11:04;;;;;;;16.17;8.00;;;25.70;43.90;;;;;;5069885;28;20028;-71
2021/06/13 05:13:30;;;;;;;15.32;8.27;;;25.90;43.40;;;;;;5061169;28;20017;-72
2021/06/13 05:15:56;;;;;;;15.93;7.30;;;26.10;43.20;;;;;;5064487;28;20063;-71
2021/06/13 05:18:21;;;;;;;12.85;7.97;;;26.30;43.00;;;;;;5067296;28;20070;-72
2021/06/13 05:20:52;;;;;;;15.65;7.85;;;26.60;42.10;;;;;;5065362;28;20040;-72
2021/06/13 05:23:18;;;;;;;24.23;14.05;;;26.80;42.10;;;;;;5058602;28;20056;-76
2021/06/13 05:25:44;;;;;;;18.67;14.25;;;27.00;41.80;;;;;;5071418;28;20316;-71
2021/06/13 05:28:10;;;;;;;23.80;13.85;;;27.30;41.20;;;;;;5077249;28;20067;-71
2021/06/13 05:30:37;;;;;;;18.90;13.63;;;27.30;40.90;;;;;;5067167;28;20033;-71
2021/06/13 05:33:03;;;;;;;16.05;10.20;;;27.30;41.10;;;;;;5073033;28;20039;-72
2021/06/13 05:35:30;;;;;;;18.58;9.57;;;27.40;40.80;;;;;;5073619;28;20041;-71
2021/06/13 05:37:56;;;;;;;13.57;8.52;;;27.80;40.40;;;;;;5075158;28;20024;-73
2021/06/13 05:40:23;;;;;;;8.85;7.18;;;28.00;40.00;;;;;;5069520;28;20430;-77
2021/06/13 05:42:49;;;;;;;13.82;7.80;;;28.10;39.60;;;;;;5073665;28;20029;-71
2021/06/13 05:45:16;;;;;;;12.02;6.35;;;28.10;39.70;;;;;;5059402;28;20114;-72
2021/06/13 05:47:42;;;;;;;11.30;6.72;;;28.40;39.20;;;;;;5062034;28;20452;-72
2021/06/13 05:50:10;;;;;;;13.65;6.70;;;28.20;38.10;;;;;;5063473;28;20063;-75
2021/06/13 05:52:36;;;;;;;12.75;6.70;;;27.60;39.60;;;;;;5052538;28;20049;-73
2021/06/13 05:55:04;;;;;;;12.82;6.50;;;27.70;40.10;;;;;;5065852;28;20024;-72
2021/06/13 05:57:32;;;;;;;10.77;6.30;;;28.10;39.60;;;;;;5074236;28;20107;-71
2021/06/13 06:00:07;;;;;;;17.85;7.05;;;28.60;38.80;;;;;;5064999;28;20029;-71
2021/06/13 06:02:33;;;;;;;12.07;6.35;;;28.30;37.80;;;;;;5054026;28;20024;-71
2021/06/13 06:04:58;;;;;;;15.43;6.40;;;28.20;39.10;;;;;;5080683;28;20037;-72
2021/06/13 06:07:24;;;;;;;11.35;6.18;;;27.90;37.80;;;;;;5073572;28;20380;-71
2021/06/13 06:09:50;;;;;;;12.57;6.85;;;26.90;38.90;;;;;;5061069;28;20405;-72
2021/06/13 06:12:16;;;;;;;10.98;5.57;;;27.30;39.40;;;;;;5060357;28;20389;-71
2021/06/13 06:14:42;;;;;;;11.23;4.20;;;27.70;38.90;;;;;;5072633;28;20036;-71
2021/06/13 06:17:08;;;;;;;11.25;5.97;;;27.60;37.20;;;;;;5073223;28;20111;-71
2021/06/13 06:19:35;;;;;;;12.63;5.68;;;27.50;38.10;;;;;;5059111;28;20578;-73
2021/06/13 06:22:01;;;;;;;9.80;5.47;;;27.50;39.20;;;;;;5054428;28;20053;-72
2021/06/13 06:24:26;;;;;;;12.43;6.65;;;28.00;38.20;;;;;;5053657;28;20075;-75
2021/06/13 06:26:52;;;;;;;11.68;5.70;;;27.70;37.70;;;;;;5046720;28;20029;-71
2021/06/13 06:29:19;;;;;;;9.23;4.85;;;28.20;38.40;;;;;;5069858;28;20128;-71
2021/06/13 06:31:45;;;;;;;9.38;4.95;;;28.70;36.80;;;;;;5072132;28;20074;-72
2021/06/13 06:34:10;;;;;;;11.65;5.05;;;28.50;36.90;;;;;;5060264;28;20033;-72
2021/06/13 06:36:36;;;;;;;12.75;5.18;;;28.80;36.80;;;;;;5051466;28;21966;-73
2021/06/13 06:39:02;;;;;;;8.70;5.28;;;28.90;37.60;;;;;;5069416;28;20123;-72
2021/06/13 06:41:28;;;;;;;11.40;5.15;;;29.30;36.90;;;;;;5072144;28;20036;-72
2021/06/13 06:43:54;;;;;;;11.45;5.45;;;29.90;36.20;;;;;;5064733;28;20033;-74
2021/06/13 06:46:19;;;;;;;7.55;4.65;;;30.30;35.70;;;;;;5072137;28;20105;-72
2021/06/13 06:48:45;;;;;;;10.50;5.10;;;30.40;34.70;;;;;;5067794;28;20068;-72
2021/06/13 06:51:11;;;;;;;11.93;5.00;;;29.90;35.60;;;;;;5073908;28;20042;-72
2021/06/13 06:53:37;;;;;;;12.25;5.80;;;29.90;35.40;;;;;;5069704;28;20163;-72
2021/06/13 06:56:02;;;;;;;9.55;5.10;;;29.90;36.00;;;;;;5069538;28;20082;-72
2021/06/13 06:58:28;;;;;;;7.72;4.20;;;29.70;34.80;;;;;;5057069;28;20070;-72
2021/06/13 07:00:54;;;;;;;10.05;5.03;;;29.50;35.60;;;;;;5078284;28;20028;-71
2021/06/13 07:03:19;;;;;;;8.82;4.72;;;29.10;34.80;;;;;;5080880;28;20378;-71
2021/06/13 07:05:45;;;;;;;8.30;4.90;;;29.10;35.70;;;;;;5077165;28;20102;-72
2021/06/13 07:08:11;;;;;;;8.40;4.45;;;29.40;35.90;;;;;;5082134;28;20037;-72
2021/06/13 07:10:36;;;;;;;6.38;4.47;;;29.80;35.40;;;;;;5080917;28;20058;-76
2021/06/13 07:13:02;;;;;;;11.40;6.43;;;29.50;34.90;;;;;;5055002;28;20501;-72
2021/06/13 07:15:28;;;;;;;9.98;4.43;;;29.30;36.30;;;;;;5073397;28;20032;-72
2021/06/13 07:17:54;;;;;;;8.27;4.25;;;29.50;35.10;;;;;;5071490;28;20033;-74
2021/06/13 07:20:20;;;;;;;10.13;4.65;;;29.70;36.20;;;;;;5086766;28;20429;-72
2021/06/13 07:22:46;;;;;;;11.13;4.50;;;29.20;34.20;;;;;;5070345;28;20025;-72
2021/06/13 07:25:12;;;;;;;8.80;3.63;;;28.50;35.80;;;;;;5066894;28;20032;-73
2021/06/13 07:27:39;;;;;;;10.75;3.78;;;28.40;35.40;;;;;;5069212;28;20115;-74
2021/06/13 07:30:07;;;;;;;8.07;3.30;;;28.10;35.10;;;;;;5079754;28;20028;-71
2021/06/13 07:32:33;;;;;;;10.50;4.40;;;28.30;36.50;;;;;;5069172;28;20491;-71
2021/06/13 07:34:58;;;;;;;10.68;4.00;;;28.30;35.50;;;;;;5057637;28;20108;-72
2021/06/13 07:37:24;;;;;;;5.80;3.20;;;28.10;35.60;;;;;;5070836;28;20031;-71
2021/06/13 07:39:49;;;;;;;8.13;3.42;;;28.40;35.90;;;;;;5057641;28;20488;-71
2021/06/13 07:42:15;;;;;;;6.13;3.10;;;28.80;36.30;;;;;;5071449;28;20029;-71
2021/06/13 07:44:41;;;;;;;6.85;3.40;;;29.10;36.40;;;;;;5067194;28;20032;-75
2021/06/13 07:47:07;;;;;;;7.85;3.50;;;29.80;34.90;;;;;;5069388;28;20553;-73
2021/06/13 07:49:33;;;;;;;8.25;3.75;;;30.00;34.80;;;;;;5070076;28;20131;-72
2021/06/13 07:51:59;;;;;;;7.07;3.63;;;30.20;34.00;;;;;;5074381;28;20125;-71
2021/06/13 07:54:26;;;;;;;5.78;3.35;;;30.30;34.40;;;;;;5072901;28;20100;-73
2021/06/13 07:56:51;;;;;;;8.10;3.60;;;30.50;34.20;;;;;;5081515;28;20103;-76
2021/06/13 07:59:17;;;;;;;6.40;3.15;;;30.80;34.00;;;;;;5068950;28;20111;-73
2021/06/13 08:01:43;;;;;;;8.20;3.53;;;30.80;33.70;;;;;;5080645;28;20020;-76
2021/06/13 08:04:08;;;;;;;7.43;3.45;;;30.10;33.20;;;;;;5074743;28;20037;-72
2021/06/13 08:06:34;;;;;;;7.20;3.33;;;29.80;34.50;;;;;;5077965;28;20498;-72
2021/06/13 08:09:00;;;;;;;10.40;4.00;;;30.00;34.50;;;;;;5074151;28;20040;-72
2021/06/13 08:11:26;;;;;;;7.43;3.25;;;29.70;33.00;;;;;;5052286;28;20100;-72
2021/06/13 08:13:53;;;;;;;7.60;3.42;;;29.00;33.70;;;;;;5063582;28;20021;-72
2021/06/13 08:16:18;;;;;;;8.50;2.90;;;28.40;34.20;;;;;;5058867;28;20035;-71
2021/06/13 08:18:44;;;;;;;8.38;3.67;;;28.20;35.70;;;;;;5068296;28;20120;-75
2021/06/13 08:21:10;;;;;;;9.93;4.05;;;27.90;34.70;;;;;;5047736;28;20041;-72
2021/06/13 08:23:35;;;;;;;9.10;3.30;;;27.60;35.20;;;;;;5065169;28;20032;-72
2021/06/13 08:26:01;;;;;;;7.90;3.58;;;27.70;35.20;;;;;;5060614;28;20080;-72
2021/06/13 08:28:28;;;;;;;10.32;3.55;;;27.30;35.00;;;;;;5056185;28;20047;-72
2021/06/13 08:30:54;;;;;;;5.32;2.90;;;26.70;36.20;;;;;;5068935;28;20023;-73
2021/06/13 08:33:19;;;;;;;7.03;2.80;;;27.10;36.60;;;;;;5067993;28;20017;-72
2021/06/13 08:35:45;;;;;;;7.05;3.72;;;27.50;34.70;;;;;;5057961;28;20085;-74
2021/06/13 08:38:11;;;;;;;7.93;2.97;;;27.70;34.90;;;;;;5066815;28;20172;-72
2021/06/13 08:40:37;;;;;;;6.80;2.63;;;27.80;35.20;;;;;;5078358;28;20491;-72
2021/06/13 08:43:04;;;;;;;6.45;2.95;;;28.30;35.80;;;;;;5068967;28;20052;-72
2021/06/13 08:45:32;;;;;;;7.15;2.20;;;28.40;33.50;;;;;;5067559;28;20028;-72
2021/06/13 08:47:59;;;;;;;5.72;2.45;;;27.50;34.40;;;;;;5062638;28;20029;-73
2021/06/13 08:50:26;;;;;;;9.15;3.10;;;26.70;35.80;;;;;;5077893;28;20025;-72
2021/06/13 08:52:53;;;;;;;5.50;2.60;;;26.90;36.20;;;;;;5068617;28;20081;-76
2021/06/13 08:55:21;;;;;;;9.45;3.90;;;26.90;35.50;;;;;;5051521;28;20033;-72
2021/06/13 08:57:49;;;;;;;8.10;3.40;;;26.50;35.90;;;;;;5050268;28;20163;-73
2021/06/13 09:00:18;;;;;;;10.10;4.03;;;26.60;36.70;;;;;;5053569;28;20031;-72
2021/06/13 09:02:44;;;;;;;5.97;2.83;;;27.30;36.60;;;;;;5066488;28;20051;-72
2021/06/13 09:05:11;;;;;;;7.38;3.08;;;27.60;34.60;;;;;;5058320;28;20029;-74
2021/06/13 09:07:48;;;;;;;7.03;3.10;;;27.40;34.70;;;;;;5074748;28;20056;-74
2021/06/13 09:10:18;;;;;;;9.43;3.50;;;27.20;34.00;;;;;;5074025;28;20110;-73
2021/06/13 09:12:46;;;;;;;7.57;3.20;;;27.00;34.80;;;;;;5068387;28;20154;-73
2021/06/13 09:15:12;;;;;;;6.05;2.97;;;27.10;34.70;;;;;;5072835;28;20040;-73
2021/06/13 09:17:44;;;;;;;9.75;3.05;;;27.30;34.60;;;;;;5069578;28;20131;-73
2021/06/13 09:20:27;;;;;;;7.28;3.25;;;27.40;34.60;;;;;;5053384;28;20095;-72
2021/06/13 09:23:13;;;;;;;7.40;3.05;;;27.10;35.30;;;;;;5071772;28;20021;-75
2021/06/13 09:25:41;;;;;;;4.95;2.90;;;27.20;35.70;;;;;;5069985;28;20086;-73
2021/06/13 09:28:10;;;;;;;8.85;3.70;;;26.80;35.90;;;;;;5053180;28;20037;-72
2021/06/13 09:30:38;;;;;;;6.78;3.17;;;26.90;35.60;;;;;;5066985;28;20028;-72
2021/06/13 09:33:26;;;;;;;8.75;3.65;;;26.30;36.00;;;;;;5053337;28;20120;-72
2021/06/13 09:35:53;;;;;;;8.05;3.25;;;26.20;37.40;;;;;;5067346;28;20035;-73
2021/06/13 09:38:20;;;;;;;9.75;3.25;;;26.60;37.30;;;;;;5073002;28;20174;-73
2021/06/13 09:40:51;;;;;;;6.28;2.95;;;27.10;36.90;;;;;;5072398;28;20036;-74
2021/06/13 09:43:26;;;;;;;8.48;3.13;;;27.60;36.70;;;;;;5073043;28;20032;-73
2021/06/13 09:45:57;;;;;;;5.95;2.88;;;27.90;34.80;;;;;;5074381;28;20060;-72
2021/06/13 09:48:23;;;;;;;7.38;3.55;;;27.70;34.90;;;;;;5067080;28;20384;-73
2021/06/13 09:50:52;;;;;;;8.13;3.70;;;27.10;35.30;;;;;;5055416;28;20104;-73
2021/06/13 09:53:19;;;;;;;6.38;3.10;;;27.00;35.90;;;;;;5069411;28;20156;-73
2021/06/13 09:55:45;;;;;;;7.00;3.67;;;27.30;37.00;;;;;;5074288;28;20063;-72
2021/06/13 09:58:14;;;;;;;6.32;3.08;;;28.20;36.80;;;;;;5072606;28;20025;-72
2021/06/13 10:00:40;;;;;;;9.57;3.53;;;29.00;35.50;;;;;;5056181;28;21828;-74
2021/06/13 10:03:22;;;;;;;6.50;3.17;;;29.50;34.70;;;;;;5066202;28;20366;-75
2021/06/13 10:05:57;;;;;;;5.50;3.10;;;29.90;33.90;;;;;;5068171;28;20039;-72
2021/06/13 10:08:27;;;;;;;8.98;3.72;;;30.20;34.10;;;;;;5072238;28;20037;-75
2021/06/13 10:11:00;;;;;;;6.78;3.20;;;30.50;34.30;;;;;;5072104;28;20024;-71
2021/06/13 10:13:39;;;;;;;9.63;3.70;;;30.60;33.40;;;;;;5073115;28;20033;-72
2021/06/13 10:16:05;;;;;;;8.38;3.40;;;30.40;32.10;;;;;;5051936;28;20116;-75
2021/06/13 10:18:30;;;;;;;7.68;2.95;;;29.10;33.00;;;;;;5053345;28;20448;-73
2021/06/13 10:21:10;;;;;;;6.30;3.30;;;28.40;34.20;;;;;;5055057;28;20045;-71
2021/06/13 10:23:37;;;;;;;6.57;3.20;;;28.70;35.30;;;;;;5055767;28;20155;-73
2021/06/13 10:26:04;;;;;;;8.57;2.88;;;29.20;34.50;;;;;;5074532;28;20032;-76
2021/06/13 10:28:30;;;;;;;7.10;2.75;;;29.70;35.30;;;;;;5073725;28;20035;-74
2021/06/13 10:30:56;;;;;;;7.88;2.85;;;29.80;33.50;;;;;;5073119;28;20385;-73
2021/06/13 10:33:24;;;;;;;5.53;2.80;;;30.00;33.20;;;;;;5055948;28;20381;-74
2021/06/13 10:35:50;;;;;;;6.45;3.10;;;29.90;33.40;;;;;;5077048;28;20108;-72
2021/06/13 10:38:16;;;;;;;6.88;2.72;;;30.00;34.00;;;;;;5083928;28;20086;-73
2021/06/13 10:40:42;;;;;;;8.02;3.28;;;30.20;33.80;;;;;;5075809;28;20037;-72
2021/06/13 10:43:08;;;;;;;7.25;3.15;;;30.20;33.40;;;;;;5073670;28;20061;-74
2021/06/13 10:45:34;;;;;;;5.35;2.45;;;30.40;33.60;;;;;;5072838;28;20032;-72
2021/06/13 10:48:08;;;;;;;7.03;2.72;;;30.50;33.70;;;;;;5075090;28;20481;-72
2021/06/13 10:50:36;;;;;;;5.60;2.60;;;30.50;33.10;;;;;;5072473;28;20507;-73
2021/06/13 10:53:04;;;;;;;5.88;2.72;;;30.60;33.40;;;;;;5068341;28;20049;-73
2021/06/13 10:55:48;;;;;;;7.45;2.92;;;30.30;33.40;;;;;;5073603;28;20044;-72
2021/06/13 10:58:50;;;;;;;7.35;3.42;;;30.20;34.00;;;;;;5074408;28;20083;-72
2021/06/13 11:01:24;;;;;;;4.93;2.95;;;30.40;33.30;;;;;;5073669;28;20112;-72
2021/06/13 11:04:01;;;;;;;7.75;3.30;;;30.30;34.10;;;;;;5071829;28;20042;-74
2021/06/13 11:06:39;;;;;;;6.80;2.92;;;30.30;33.90;;;;;;5065760;28;20106;-73
2021/06/13 11:09:07;;;;;;;5.97;3.00;;;30.50;34.00;;;;;;5069374;28;20039;-73
2021/06/13 11:11:34;;;;;;;8.63;3.10;;;30.50;34.00;;;;;;5052869;28;20035;-72
2021/06/13 11:14:28;;;;;;;7.47;3.15;;;30.30;33.50;;;;;;5070920;28;20493;-73
2021/06/13 11:16:58;;;;;;;6.82;3.20;;;30.30;33.80;;;;;;5072376;28;20081;-71
2021/06/13 11:19:29;;;;;;;6.90;3.17;;;30.30;33.20;;;;;;5070720;28;20456;-72
2021/06/13 11:22:13;;;;;;;8.07;3.17;;;30.10;33.50;;;;;;5073447;28;20032;-72
2021/06/13 11:24:49;;;;;;;5.70;2.45;;;29.90;33.30;;;;;;5067773;28;20037;-72
2021/06/13 11:27:15;;;;;;;11.52;3.38;;;29.30;33.90;;;;;;5051393;28;20029;-76
2021/06/13 11:29:50;;;;;;;6.90;3.70;;;29.10;33.90;;;;;;5051915;28;20439;-71
2021/06/13 11:32:16;;;;;;;9.48;3.42;;;28.10;34.50;;;;;;5051398;28;20029;-75
2021/06/13 11:34:48;;;;;;;9.23;3.10;;;27.60;35.10;;;;;;5056181;28;20024;-71
2021/06/13 11:37:25;;;;;;;7.43;3.05;;;27.10;35.70;;;;;;5052568;28;20086;-75
2021/06/13 11:39:57;;;;;;;7.40;2.88;;;26.40;36.60;;;;;;5062904;28;20040;-71
2021/06/13 11:42:23;;;;;;;10.90;4.07;;;26.00;37.50;;;;;;5072040;28;20028;-72
2021/06/13 11:44:53;;;;;;;7.82;3.10;;;26.50;37.80;;;;;;5059341;28;20423;-72
2021/06/13 11:47:24;;;;;;;6.30;2.83;;;26.70;37.00;;;;;;5051001;28;20033;-72
2021/06/13 11:49:53;;;;;;;5.25;2.63;;;27.30;37.50;;;;;;5052631;28;20037;-72
2021/06/13 11:52:20;;;;;;;5.28;2.78;;;27.80;36.90;;;;;;5067365;28;20031;-76
2021/06/13 11:54:56;;;;;;;7.68;3.55;;;28.40;36.80;;;;;;5050865;28;20049;-72
2021/06/13 11:57:22;;;;;;;8.20;3.42;;;28.70;35.70;;;;;;5052338;28;20083;-72
2021/06/13 11:59:48;;;;;;;6.60;2.63;;;29.00;35.50;;;;;;5063649;28;20032;-72
2021/06/13 12:02:23;;;;;;;7.13;3.58;;;29.40;35.40;;;;;;5072396;28;20549;-72
2021/06/13 12:04:49;;;;;;;5.30;2.72;;;29.70;33.30;;;;;;5065955;28;20036;-72
2021/06/13 12:07:17;;;;;;;8.57;3.60;;;29.60;34.50;;;;;;5066575;28;20033;-72
2021/06/13 12:09:50;;;;;;;8.45;3.25;;;29.70;34.40;;;;;;5071471;28;20542;-71
2021/06/13 12:12:21;;;;;;;7.13;3.03;;;29.80;33.90;;;;;;5071476;28;20023;-72
2021/06/13 12:14:49;;;;;;;9.15;2.60;;;29.30;33.40;;;;;;5071665;28;20536;-72
2021/06/13 12:17:17;;;;;;;6.32;2.58;;;29.20;34.40;;;;;;5071093;28;20046;-72
2021/06/13 12:19:48;;;;;;;7.47;2.20;;;29.50;33.40;;;;;;5066999;28;20025;-73
2021/06/13 12:22:24;;;;;;;5.72;2.72;;;29.70;33.00;;;;;;5067010;28;20426;-72
2021/06/13 12:27:51;;;;;;;4.75;2.40;;;29.80;32.90;;;;;;5071529;28;20071;-72
2021/06/13 12:30:27;;;;;;;9.07;3.40;;;30.10;32.50;;;;;;5065453;28;20045;-71
2021/06/13 12:32:57;;;;;;;7.47;2.85;;;29.90;31.20;;;;;;5056187;28;20056;-72
2021/06/13 12:35:28;;;;;;;8.52;2.15;;;29.10;33.00;;;;;;5067326;28;20021;-74
2021/06/13 12:37:58;;;;;;;6.40;2.92;;;29.00;34.10;;;;;;5054992;28;20028;-73
2021/06/13 12:40:24;;;;;;;6.00;2.78;;;29.00;33.30;;;;;;5070461;28;20028;-75
2021/06/13 12:42:50;;;;;;;7.43;2.80;;;29.20;33.40;;;;;;5069319;28;20029;-73
2021/06/13 12:45:18;;;;;;;7.32;2.30;;;29.40;33.70;;;;;;5068556;28;20032;-72
2021/06/13 12:47:48;;;;;;;6.60;2.65;;;29.40;33.60;;;;;;5070601;28;20020;-72
2021/06/13 12:50:44;;;;;;;7.47;2.63;;;29.40;33.70;;;;;;5069588;28;20027;-72